sensor_id;sensor_type;location;lat;lon;timestamp;P1;durP1;ratioP1;P2;durP2;ratioP2
53145;SDS011;39042;53.150;5.898;2024-02-15T00:01:59;49.88;;;19.45;;
53145;SDS011;39042;53.150;5.898;2024-02-15T00:04:25;55.30;;;17.35;;
53145;SDS011;39042;53.150;5.898;2024-02-15T00:06:51;53.87;;;16.27;;
53145;SDS011;39042;53.150;5.898;2024-02-15T00:09:17;49.33;;;15.53;;
53145;SDS011;39042;53.150;5.898;2024-02-15T00:11:43;42.72;;;15.95;;
53145;SDS011;39042;53.150;5.898;2024-02-15T00:14:09;51.77;;;15.37;;
53145;SDS011;39042;53.150;5.898;2024-02-15T00:16:35;42.03;;;12.93;;
53145;SDS011;39042;53.150;5.898;2024-02-15T00:19:01;46.87;;;14.77;;
53145;SDS011;39042;53.150;5.898;2024-02-15T00:21:27;41.37;;;13.83;;
53145;SDS011;39042;53.150;5.898;2024-02-15T00:23:53;44.47;;;13.65;;
53145;SDS011;39042;53.150;5.898;2024-02-15T00:26:21;47.00;;;14.00;;
53145;SDS011;39042;53.150;5.898;2024-02-15T00:28:47;42.00;;;13.68;;
53145;SDS011;39042;53.150;5.898;2024-02-15T00:31:13;36.50;;;11.32;;
53145;SDS011;39042;53.150;5.898;2024-02-15T00:33:39;36.83;;;11.37;;
53145;SDS011;39042;53.150;5.898;2024-02-15T00:36:05;42.90;;;11.87;;
53145;SDS011;39042;53.150;5.898;2024-02-15T00:38:31;39.88;;;11.48;;
53145;SDS011;39042;53.150;5.898;2024-02-15T00:40:57;36.20;;;10.55;;
53145;SDS011;39042;53.150;5.898;2024-02-15T00:43:26;42.40;;;11.82;;
53145;SDS011;39042;53.150;5.898;2024-02-15T00:45:53;40.70;;;10.57;;
53145;SDS011;39042;53.150;5.898;2024-02-15T00:48:18;37.93;;;10.27;;
53145;SDS011;39042;53.150;5.898;2024-02-15T00:50:44;34.17;;;9.87;;
53145;SDS011;39042;53.150;5.898;2024-02-15T00:53:10;39.25;;;9.38;;
53145;SDS011;39042;53.150;5.898;2024-02-15T00:55:36;33.90;;;9.57;;
53145;SDS011;39042;53.150;5.898;2024-02-15T00:58:02;31.13;;;9.65;;
53145;SDS011;39042;53.150;5.898;2024-02-15T01:00:28;33.05;;;9.15;;
53145;SDS011;39042;53.150;5.898;2024-02-15T01:02:55;36.47;;;9.50;;
53145;SDS011;39042;53.150;5.898;2024-02-15T01:05:21;36.63;;;9.15;;
53145;SDS011;39042;53.150;5.898;2024-02-15T01:07:47;25.33;;;8.63;;
53145;SDS011;39042;53.150;5.898;2024-02-15T01:10:16;30.55;;;9.63;;
53145;SDS011;39042;53.150;5.898;2024-02-15T01:12:42;31.80;;;9.63;;
53145;SDS011;39042;53.150;5.898;2024-02-15T01:15:09;31.15;;;11.18;;
53145;SDS011;39042;53.150;5.898;2024-02-15T01:17:35;30.65;;;10.85;;
53145;SDS011;39042;53.150;5.898;2024-02-15T01:20:01;32.27;;;10.23;;
53145;SDS011;39042;53.150;5.898;2024-02-15T01:22:26;31.57;;;10.07;;
53145;SDS011;39042;53.150;5.898;2024-02-15T01:24:52;36.50;;;10.43;;
53145;SDS011;39042;53.150;5.898;2024-02-15T01:27:19;26.73;;;9.43;;
53145;SDS011;39042;53.150;5.898;2024-02-15T01:29:44;32.42;;;9.88;;
53145;SDS011;39042;53.150;5.898;2024-02-15T01:32:10;36.30;;;9.17;;
53145;SDS011;39042;53.150;5.898;2024-02-15T01:34:36;29.02;;;9.63;;
53145;SDS011;39042;53.150;5.898;2024-02-15T01:37:02;27.50;;;9.73;;
53145;SDS011;39042;53.150;5.898;2024-02-15T01:39:28;31.90;;;11.00;;
53145;SDS011;39042;53.150;5.898;2024-02-15T01:41:54;26.77;;;8.93;;
53145;SDS011;39042;53.150;5.898;2024-02-15T01:44:21;27.42;;;9.05;;
53145;SDS011;39042;53.150;5.898;2024-02-15T01:46:50;33.40;;;9.48;;
53145;SDS011;39042;53.150;5.898;2024-02-15T01:49:22;26.33;;;8.48;;
53145;SDS011;39042;53.150;5.898;2024-02-15T01:51:50;24.35;;;9.55;;
53145;SDS011;39042;53.150;5.898;2024-02-15T01:54:18;28.45;;;8.52;;
53145;SDS011;39042;53.150;5.898;2024-02-15T01:56:45;33.28;;;9.02;;
53145;SDS011;39042;53.150;5.898;2024-02-15T01:59:15;22.80;;;9.15;;
53145;SDS011;39042;53.150;5.898;2024-02-15T02:01:42;31.88;;;9.32;;
53145;SDS011;39042;53.150;5.898;2024-02-15T02:04:08;26.45;;;9.48;;
53145;SDS011;39042;53.150;5.898;2024-02-15T02:06:36;23.85;;;8.27;;
53145;SDS011;39042;53.150;5.898;2024-02-15T02:09:03;25.00;;;8.00;;
53145;SDS011;39042;53.150;5.898;2024-02-15T02:11:29;27.70;;;10.17;;
53145;SDS011;39042;53.150;5.898;2024-02-15T02:13:55;35.00;;;8.88;;
53145;SDS011;39042;53.150;5.898;2024-02-15T02:16:25;24.25;;;8.23;;
53145;SDS011;39042;53.150;5.898;2024-02-15T02:18:55;26.65;;;8.65;;
53145;SDS011;39042;53.150;5.898;2024-02-15T02:21:27;27.38;;;8.65;;
53145;SDS011;39042;53.150;5.898;2024-02-15T02:23:57;27.60;;;8.75;;
53145;SDS011;39042;53.150;5.898;2024-02-15T02:26:24;29.20;;;9.68;;
53145;SDS011;39042;53.150;5.898;2024-02-15T02:28:50;30.30;;;9.23;;
53145;SDS011;39042;53.150;5.898;2024-02-15T02:31:19;29.10;;;9.75;;
53145;SDS011;39042;53.150;5.898;2024-02-15T02:33:52;38.65;;;11.75;;
53145;SDS011;39042;53.150;5.898;2024-02-15T02:36:19;32.58;;;11.70;;
53145;SDS011;39042;53.150;5.898;2024-02-15T02:38:45;40.72;;;12.85;;
53145;SDS011;39042;53.150;5.898;2024-02-15T02:41:15;43.33;;;13.25;;
53145;SDS011;39042;53.150;5.898;2024-02-15T02:43:41;42.78;;;14.48;;
53145;SDS011;39042;53.150;5.898;2024-02-15T02:46:10;41.70;;;15.50;;
53145;SDS011;39042;53.150;5.898;2024-02-15T02:48:37;37.28;;;14.02;;
53145;SDS011;39042;53.150;5.898;2024-02-15T02:51:04;38.63;;;13.18;;
53145;SDS011;39042;53.150;5.898;2024-02-15T02:53:30;42.63;;;12.82;;
53145;SDS011;39042;53.150;5.898;2024-02-15T02:55:56;42.20;;;12.00;;
53145;SDS011;39042;53.150;5.898;2024-02-15T02:58:22;36.97;;;12.20;;
53145;SDS011;39042;53.150;5.898;2024-02-15T03:00:48;40.47;;;12.30;;
53145;SDS011;39042;53.150;5.898;2024-02-15T03:03:15;37.22;;;11.20;;
53145;SDS011;39042;53.150;5.898;2024-02-15T03:05:41;32.20;;;11.20;;
53145;SDS011;39042;53.150;5.898;2024-02-15T03:08:13;35.63;;;11.35;;
53145;SDS011;39042;53.150;5.898;2024-02-15T03:10:41;29.38;;;9.98;;
53145;SDS011;39042;53.150;5.898;2024-02-15T03:13:08;30.05;;;9.75;;
53145;SDS011;39042;53.150;5.898;2024-02-15T03:15:37;27.48;;;9.85;;
53145;SDS011;39042;53.150;5.898;2024-02-15T03:18:03;34.10;;;9.85;;
53145;SDS011;39042;53.150;5.898;2024-02-15T03:20:32;22.13;;;8.23;;
53145;SDS011;39042;53.150;5.898;2024-02-15T03:23:02;28.33;;;9.20;;
53145;SDS011;39042;53.150;5.898;2024-02-15T03:25:28;33.97;;;9.65;;
53145;SDS011;39042;53.150;5.898;2024-02-15T03:30:22;25.08;;;8.73;;
53145;SDS011;39042;53.150;5.898;2024-02-15T03:32:54;32.55;;;9.52;;
53145;SDS011;39042;53.150;5.898;2024-02-15T03:35:21;31.55;;;8.45;;
53145;SDS011;39042;53.150;5.898;2024-02-15T03:37:51;34.38;;;9.82;;
53145;SDS011;39042;53.150;5.898;2024-02-15T03:40:17;28.20;;;8.63;;
53145;SDS011;39042;53.150;5.898;2024-02-15T03:42:45;24.08;;;8.68;;
53145;SDS011;39042;53.150;5.898;2024-02-15T03:45:11;27.27;;;9.25;;
53145;SDS011;39042;53.150;5.898;2024-02-15T03:47:37;27.93;;;9.60;;
53145;SDS011;39042;53.150;5.898;2024-02-15T03:50:04;26.10;;;8.77;;
53145;SDS011;39042;53.150;5.898;2024-02-15T03:52:30;32.45;;;9.70;;
53145;SDS011;39042;53.150;5.898;2024-02-15T03:54:57;31.27;;;9.27;;
53145;SDS011;39042;53.150;5.898;2024-02-15T03:57:23;35.28;;;8.93;;
53145;SDS011;39042;53.150;5.898;2024-02-15T03:59:49;28.23;;;8.48;;
53145;SDS011;39042;53.150;5.898;2024-02-15T04:02:20;25.77;;;9.10;;
53145;SDS011;39042;53.150;5.898;2024-02-15T04:04:46;36.47;;;9.25;;
53145;SDS011;39042;53.150;5.898;2024-02-15T04:07:15;30.05;;;10.30;;
53145;SDS011;39042;53.150;5.898;2024-02-15T04:09:50;29.98;;;9.60;;
53145;SDS011;39042;53.150;5.898;2024-02-15T04:12:16;28.15;;;10.52;;
53145;SDS011;39042;53.150;5.898;2024-02-15T04:14:45;32.60;;;11.60;;
53145;SDS011;39042;53.150;5.898;2024-02-15T04:17:12;35.88;;;11.15;;
53145;SDS011;39042;53.150;5.898;2024-02-15T04:19:45;41.13;;;12.90;;
53145;SDS011;39042;53.150;5.898;2024-02-15T04:22:11;32.72;;;12.52;;
53145;SDS011;39042;53.150;5.898;2024-02-15T04:27:08;36.53;;;13.52;;
53145;SDS011;39042;53.150;5.898;2024-02-15T04:29:37;37.30;;;13.10;;
53145;SDS011;39042;53.150;5.898;2024-02-15T04:32:06;32.40;;;14.38;;
53145;SDS011;39042;53.150;5.898;2024-02-15T04:34:36;32.47;;;13.50;;
53145;SDS011;39042;53.150;5.898;2024-02-15T04:37:02;32.25;;;13.18;;
53145;SDS011;39042;53.150;5.898;2024-02-15T04:39:35;29.80;;;13.32;;
53145;SDS011;39042;53.150;5.898;2024-02-15T04:42:01;34.15;;;13.20;;
53145;SDS011;39042;53.150;5.898;2024-02-15T04:44:28;34.33;;;12.90;;
53145;SDS011;39042;53.150;5.898;2024-02-15T04:46:54;30.83;;;13.50;;
53145;SDS011;39042;53.150;5.898;2024-02-15T04:49:20;30.95;;;12.73;;
53145;SDS011;39042;53.150;5.898;2024-02-15T04:51:46;34.28;;;12.70;;
53145;SDS011;39042;53.150;5.898;2024-02-15T04:54:15;30.77;;;12.18;;
53145;SDS011;39042;53.150;5.898;2024-02-15T04:56:43;32.65;;;13.65;;
53145;SDS011;39042;53.150;5.898;2024-02-15T04:59:09;28.15;;;13.50;;
53145;SDS011;39042;53.150;5.898;2024-02-15T05:01:40;33.53;;;14.48;;
53145;SDS011;39042;53.150;5.898;2024-02-15T05:04:11;28.88;;;12.50;;
53145;SDS011;39042;53.150;5.898;2024-02-15T05:06:39;29.38;;;13.55;;
53145;SDS011;39042;53.150;5.898;2024-02-15T05:09:05;28.48;;;12.98;;
53145;SDS011;39042;53.150;5.898;2024-02-15T05:11:39;30.77;;;13.18;;
53145;SDS011;39042;53.150;5.898;2024-02-15T05:14:11;25.77;;;13.32;;
53145;SDS011;39042;53.150;5.898;2024-02-15T05:16:48;26.92;;;12.65;;
53145;SDS011;39042;53.150;5.898;2024-02-15T05:19:18;29.33;;;12.90;;
53145;SDS011;39042;53.150;5.898;2024-02-15T05:21:44;26.17;;;12.57;;
53145;SDS011;39042;53.150;5.898;2024-02-15T05:24:16;26.83;;;12.38;;
53145;SDS011;39042;53.150;5.898;2024-02-15T05:26:43;25.73;;;12.02;;
53145;SDS011;39042;53.150;5.898;2024-02-15T05:29:14;23.20;;;12.02;;
53145;SDS011;39042;53.150;5.898;2024-02-15T05:31:40;29.45;;;12.38;;
53145;SDS011;39042;53.150;5.898;2024-02-15T05:34:06;28.88;;;12.75;;
53145;SDS011;39042;53.150;5.898;2024-02-15T05:36:33;30.50;;;11.85;;
53145;SDS011;39042;53.150;5.898;2024-02-15T05:38:59;25.95;;;11.73;;
53145;SDS011;39042;53.150;5.898;2024-02-15T05:41:27;22.13;;;11.60;;
53145;SDS011;39042;53.150;5.898;2024-02-15T05:43:53;28.13;;;11.33;;
53145;SDS011;39042;53.150;5.898;2024-02-15T05:46:19;29.67;;;12.10;;
53145;SDS011;39042;53.150;5.898;2024-02-15T05:48:48;28.80;;;12.15;;
53145;SDS011;39042;53.150;5.898;2024-02-15T05:51:14;26.38;;;12.05;;
53145;SDS011;39042;53.150;5.898;2024-02-15T05:53:40;25.45;;;11.70;;
53145;SDS011;39042;53.150;5.898;2024-02-15T05:56:07;26.60;;;12.05;;
53145;SDS011;39042;53.150;5.898;2024-02-15T05:58:35;25.27;;;11.93;;
53145;SDS011;39042;53.150;5.898;2024-02-15T06:01:02;29.10;;;12.32;;
53145;SDS011;39042;53.150;5.898;2024-02-15T06:03:30;24.95;;;12.90;;
53145;SDS011;39042;53.150;5.898;2024-02-15T06:05:58;30.33;;;12.32;;
53145;SDS011;39042;53.150;5.898;2024-02-15T06:08:27;31.90;;;13.35;;
53145;SDS011;39042;53.150;5.898;2024-02-15T06:10:55;32.17;;;13.43;;
53145;SDS011;39042;53.150;5.898;2024-02-15T06:13:24;30.40;;;13.20;;
53145;SDS011;39042;53.150;5.898;2024-02-15T06:15:51;38.47;;;14.70;;
53145;SDS011;39042;53.150;5.898;2024-02-15T06:18:23;30.90;;;13.75;;
53145;SDS011;39042;53.150;5.898;2024-02-15T06:20:51;37.58;;;16.63;;
53145;SDS011;39042;53.150;5.898;2024-02-15T06:23:17;36.38;;;15.35;;
53145;SDS011;39042;53.150;5.898;2024-02-15T06:25:43;35.42;;;15.40;;
53145;SDS011;39042;53.150;5.898;2024-02-15T06:28:16;36.90;;;16.20;;
53145;SDS011;39042;53.150;5.898;2024-02-15T06:31:08;43.00;;;17.30;;
53145;SDS011;39042;53.150;5.898;2024-02-15T06:33:53;33.88;;;16.50;;
53145;SDS011;39042;53.150;5.898;2024-02-15T06:36:48;47.28;;;18.10;;
53145;SDS011;39042;53.150;5.898;2024-02-15T06:39:33;47.83;;;17.73;;
53145;SDS011;39042;53.150;5.898;2024-02-15T06:42:11;53.55;;;20.25;;
53145;SDS011;39042;53.150;5.898;2024-02-15T06:44:40;47.13;;;19.13;;
53145;SDS011;39042;53.150;5.898;2024-02-15T06:47:06;52.43;;;21.20;;
53145;SDS011;39042;53.150;5.898;2024-02-15T06:49:32;49.33;;;19.70;;
53145;SDS011;39042;53.150;5.898;2024-02-15T06:54:27;53.05;;;21.33;;
53145;SDS011;39042;53.150;5.898;2024-02-15T06:56:53;44.67;;;19.35;;
53145;SDS011;39042;53.150;5.898;2024-02-15T06:59:20;45.50;;;20.33;;
53145;SDS011;39042;53.150;5.898;2024-02-15T07:01:48;46.58;;;20.75;;
53145;SDS011;39042;53.150;5.898;2024-02-15T07:04:18;48.85;;;21.13;;
53145;SDS011;39042;53.150;5.898;2024-02-15T07:06:45;50.08;;;20.25;;
53145;SDS011;39042;53.150;5.898;2024-02-15T07:09:13;46.10;;;20.38;;
53145;SDS011;39042;53.150;5.898;2024-02-15T07:11:44;44.42;;;20.42;;
53145;SDS011;39042;53.150;5.898;2024-02-15T07:14:12;44.65;;;21.05;;
53145;SDS011;39042;53.150;5.898;2024-02-15T07:16:38;43.05;;;20.10;;
53145;SDS011;39042;53.150;5.898;2024-02-15T07:19:04;41.47;;;20.15;;
53145;SDS011;39042;53.150;5.898;2024-02-15T07:21:31;37.67;;;18.17;;
53145;SDS011;39042;53.150;5.898;2024-02-15T07:23:57;36.45;;;18.40;;
53145;SDS011;39042;53.150;5.898;2024-02-15T07:26:24;34.70;;;17.55;;
53145;SDS011;39042;53.150;5.898;2024-02-15T07:28:53;32.17;;;17.75;;
53145;SDS011;39042;53.150;5.898;2024-02-15T07:31:20;40.25;;;17.50;;
53145;SDS011;39042;53.150;5.898;2024-02-15T07:33:49;35.10;;;18.58;;
53145;SDS011;39042;53.150;5.898;2024-02-15T07:36:19;33.45;;;17.00;;
53145;SDS011;39042;53.150;5.898;2024-02-15T07:38:47;33.78;;;17.98;;
53145;SDS011;39042;53.150;5.898;2024-02-15T07:41:17;36.70;;;17.52;;
53145;SDS011;39042;53.150;5.898;2024-02-15T07:43:45;34.80;;;17.27;;
53145;SDS011;39042;53.150;5.898;2024-02-15T07:46:12;32.45;;;16.98;;
53145;SDS011;39042;53.150;5.898;2024-02-15T07:48:39;32.78;;;16.83;;
53145;SDS011;39042;53.150;5.898;2024-02-15T07:51:11;32.38;;;16.95;;
53145;SDS011;39042;53.150;5.898;2024-02-15T07:53:38;29.20;;;15.77;;
53145;SDS011;39042;53.150;5.898;2024-02-15T07:56:05;32.17;;;16.77;;
53145;SDS011;39042;53.150;5.898;2024-02-15T07:58:31;34.13;;;17.48;;
53145;SDS011;39042;53.150;5.898;2024-02-15T08:00:57;31.42;;;17.67;;
53145;SDS011;39042;53.150;5.898;2024-02-15T08:03:25;33.83;;;17.40;;
53145;SDS011;39042;53.150;5.898;2024-02-15T08:05:54;37.75;;;18.42;;
53145;SDS011;39042;53.150;5.898;2024-02-15T08:08:21;36.33;;;17.92;;
53145;SDS011;39042;53.150;5.898;2024-02-15T08:10:46;33.47;;;19.27;;
53145;SDS011;39042;53.150;5.898;2024-02-15T08:13:14;33.35;;;17.88;;
53145;SDS011;39042;53.150;5.898;2024-02-15T08:15:40;37.20;;;19.00;;
53145;SDS011;39042;53.150;5.898;2024-02-15T08:18:09;34.15;;;18.77;;
53145;SDS011;39042;53.150;5.898;2024-02-15T08:20:38;34.60;;;18.40;;
53145;SDS011;39042;53.150;5.898;2024-02-15T08:23:05;33.63;;;17.80;;
53145;SDS011;39042;53.150;5.898;2024-02-15T08:25:31;33.05;;;16.88;;
53145;SDS011;39042;53.150;5.898;2024-02-15T08:27:57;34.97;;;17.07;;
53145;SDS011;39042;53.150;5.898;2024-02-15T08:30:23;35.72;;;17.67;;
53145;SDS011;39042;53.150;5.898;2024-02-15T08:32:49;35.83;;;17.27;;
53145;SDS011;39042;53.150;5.898;2024-02-15T08:35:17;31.88;;;16.75;;
53145;SDS011;39042;53.150;5.898;2024-02-15T08:37:43;31.63;;;17.05;;
53145;SDS011;39042;53.150;5.898;2024-02-15T08:40:12;37.40;;;17.75;;
53145;SDS011;39042;53.150;5.898;2024-02-15T08:42:44;31.80;;;17.52;;
53145;SDS011;39042;53.150;5.898;2024-02-15T08:45:13;34.83;;;17.40;;
53145;SDS011;39042;53.150;5.898;2024-02-15T08:47:40;34.33;;;17.40;;
53145;SDS011;39042;53.150;5.898;2024-02-15T08:50:07;32.97;;;17.67;;
53145;SDS011;39042;53.150;5.898;2024-02-15T08:52:37;30.98;;;16.52;;
53145;SDS011;39042;53.150;5.898;2024-02-15T08:55:08;32.95;;;17.20;;
53145;SDS011;39042;53.150;5.898;2024-02-15T08:57:35;28.52;;;16.17;;
53145;SDS011;39042;53.150;5.898;2024-02-15T09:02:30;29.13;;;16.83;;
53145;SDS011;39042;53.150;5.898;2024-02-15T09:04:58;28.38;;;15.65;;
53145;SDS011;39042;53.150;5.898;2024-02-15T09:07:24;27.98;;;15.90;;
53145;SDS011;39042;53.150;5.898;2024-02-15T09:09:50;24.90;;;14.37;;
53145;SDS011;39042;53.150;5.898;2024-02-15T09:12:16;27.10;;;15.70;;
53145;SDS011;39042;53.150;5.898;2024-02-15T09:14:42;27.83;;;14.83;;
53145;SDS011;39042;53.150;5.898;2024-02-15T09:17:07;24.27;;;13.90;;
53145;SDS011;39042;53.150;5.898;2024-02-15T09:19:34;24.37;;;13.30;;
53145;SDS011;39042;53.150;5.898;2024-02-15T09:22:00;20.35;;;12.52;;
53145;SDS011;39042;53.150;5.898;2024-02-15T09:24:29;20.80;;;12.57;;
53145;SDS011;39042;53.150;5.898;2024-02-15T09:26:56;18.88;;;10.70;;
53145;SDS011;39042;53.150;5.898;2024-02-15T09:29:22;18.05;;;11.88;;
53145;SDS011;39042;53.150;5.898;2024-02-15T09:31:49;17.98;;;11.35;;
53145;SDS011;39042;53.150;5.898;2024-02-15T09:34:15;17.30;;;10.80;;
53145;SDS011;39042;53.150;5.898;2024-02-15T09:36:41;17.07;;;11.30;;
53145;SDS011;39042;53.150;5.898;2024-02-15T09:39:07;16.10;;;10.80;;
53145;SDS011;39042;53.150;5.898;2024-02-15T09:41:33;14.52;;;9.52;;
53145;SDS011;39042;53.150;5.898;2024-02-15T09:43:59;14.13;;;9.30;;
53145;SDS011;39042;53.150;5.898;2024-02-15T09:46:26;11.40;;;7.10;;
53145;SDS011;39042;53.150;5.898;2024-02-15T09:48:54;10.68;;;6.57;;
53145;SDS011;39042;53.150;5.898;2024-02-15T09:51:25;10.13;;;5.97;;
53145;SDS011;39042;53.150;5.898;2024-02-15T09:53:52;8.18;;;5.47;;
53145;SDS011;39042;53.150;5.898;2024-02-15T09:56:21;8.57;;;6.55;;
53145;SDS011;39042;53.150;5.898;2024-02-15T09:58:50;9.82;;;6.55;;
53145;SDS011;39042;53.150;5.898;2024-02-15T10:01:16;9.32;;;6.80;;
53145;SDS011;39042;53.150;5.898;2024-02-15T10:03:45;5.93;;;4.50;;
53145;SDS011;39042;53.150;5.898;2024-02-15T10:06:14;6.82;;;4.78;;
53145;SDS011;39042;53.150;5.898;2024-02-15T10:08:40;6.35;;;4.25;;
53145;SDS011;39042;53.150;5.898;2024-02-15T10:11:06;4.72;;;4.22;;
53145;SDS011;39042;53.150;5.898;2024-02-15T10:13:35;3.60;;;3.30;;
53145;SDS011;39042;53.150;5.898;2024-02-15T10:18:41;4.80;;;2.75;;
53145;SDS011;39042;53.150;5.898;2024-02-15T10:21:06;6.30;;;3.33;;
53145;SDS011;39042;53.150;5.898;2024-02-15T10:23:32;3.03;;;2.73;;
53145;SDS011;39042;53.150;5.898;2024-02-15T10:25:58;4.70;;;3.27;;
53145;SDS011;39042;53.150;5.898;2024-02-15T10:28:24;4.27;;;3.17;;
53145;SDS011;39042;53.150;5.898;2024-02-15T10:30:52;3.67;;;2.83;;
53145;SDS011;39042;53.150;5.898;2024-02-15T10:33:28;4.25;;;2.53;;
53145;SDS011;39042;53.150;5.898;2024-02-15T10:38:39;3.65;;;2.72;;
53145;SDS011;39042;53.150;5.898;2024-02-15T10:41:08;3.25;;;2.72;;
53145;SDS011;39042;53.150;5.898;2024-02-15T10:43:36;4.78;;;3.17;;
53145;SDS011;39042;53.150;5.898;2024-02-15T10:46:05;4.03;;;3.55;;
53145;SDS011;39042;53.150;5.898;2024-02-15T10:48:33;4.35;;;3.65;;
53145;SDS011;39042;53.150;5.898;2024-02-15T10:50:59;4.70;;;3.60;;
53145;SDS011;39042;53.150;5.898;2024-02-15T10:53:28;4.93;;;4.00;;
53145;SDS011;39042;53.150;5.898;2024-02-15T10:58:35;5.90;;;3.95;;
53145;SDS011;39042;53.150;5.898;2024-02-15T11:01:11;5.22;;;4.25;;
53145;SDS011;39042;53.150;5.898;2024-02-15T11:03:56;4.72;;;3.85;;
53145;SDS011;39042;53.150;5.898;2024-02-15T11:06:27;5.68;;;4.60;;
53145;SDS011;39042;53.150;5.898;2024-02-15T11:08:55;6.60;;;4.82;;
53145;SDS011;39042;53.150;5.898;2024-02-15T11:11:22;6.70;;;5.07;;
53145;SDS011;39042;53.150;5.898;2024-02-15T11:19:07;7.47;;;4.70;;
53145;SDS011;39042;53.150;5.898;2024-02-15T11:21:53;7.32;;;4.75;;
53145;SDS011;39042;53.150;5.898;2024-02-15T11:24:28;10.40;;;5.90;;
53145;SDS011;39042;53.150;5.898;2024-02-15T11:27:00;12.15;;;6.18;;
53145;SDS011;39042;53.150;5.898;2024-02-15T11:35:08;20.90;;;9.05;;
53145;SDS011;39042;53.150;5.898;2024-02-15T11:43:07;26.73;;;11.75;;
53145;SDS011;39042;53.150;5.898;2024-02-15T11:45:34;37.15;;;13.80;;
53145;SDS011;39042;53.150;5.898;2024-02-15T11:48:09;35.75;;;13.18;;
53145;SDS011;39042;53.150;5.898;2024-02-15T11:50:37;41.33;;;13.82;;
53145;SDS011;39042;53.150;5.898;2024-02-15T11:53:05;38.00;;;14.52;;
53145;SDS011;39042;53.150;5.898;2024-02-15T11:55:35;35.70;;;14.32;;
53145;SDS011;39042;53.150;5.898;2024-02-15T11:58:05;34.80;;;14.00;;
53145;SDS011;39042;53.150;5.898;2024-02-15T12:00:35;38.22;;;14.57;;
53145;SDS011;39042;53.150;5.898;2024-02-15T12:03:21;34.20;;;13.40;;
53145;SDS011;39042;53.150;5.898;2024-02-15T12:06:07;37.22;;;14.73;;
53145;SDS011;39042;53.150;5.898;2024-02-15T12:08:51;38.90;;;15.85;;
53145;SDS011;39042;53.150;5.898;2024-02-15T12:11:37;40.92;;;17.67;;
53145;SDS011;39042;53.150;5.898;2024-02-15T12:14:22;35.13;;;15.30;;
53145;SDS011;39042;53.150;5.898;2024-02-15T12:17:07;39.53;;;15.82;;
53145;SDS011;39042;53.150;5.898;2024-02-15T12:19:53;36.53;;;15.65;;
53145;SDS011;39042;53.150;5.898;2024-02-15T12:22:28;42.42;;;20.33;;
53145;SDS011;39042;53.150;5.898;2024-02-15T12:25:03;39.92;;;17.98;;
53145;SDS011;39042;53.150;5.898;2024-02-15T12:27:40;39.92;;;17.75;;
53145;SDS011;39042;53.150;5.898;2024-02-15T12:30:12;38.05;;;18.80;;
53145;SDS011;39042;53.150;5.898;2024-02-15T12:32:40;39.60;;;19.45;;
53145;SDS011;39042;53.150;5.898;2024-02-15T12:35:13;33.75;;;17.13;;
53145;SDS011;39042;53.150;5.898;2024-02-15T12:37:48;33.28;;;16.10;;
53145;SDS011;39042;53.150;5.898;2024-02-15T12:40:37;30.17;;;15.40;;
53145;SDS011;39042;53.150;5.898;2024-02-15T12:43:09;32.60;;;15.68;;
53145;SDS011;39042;53.150;5.898;2024-02-15T12:45:40;33.05;;;17.00;;
53145;SDS011;39042;53.150;5.898;2024-02-15T12:48:07;34.25;;;17.42;;
53145;SDS011;39042;53.150;5.898;2024-02-15T12:50:34;37.53;;;17.52;;
53145;SDS011;39042;53.150;5.898;2024-02-15T12:55:31;33.60;;;17.42;;
53145;SDS011;39042;53.150;5.898;2024-02-15T12:58:01;36.83;;;17.90;;
53145;SDS011;39042;53.150;5.898;2024-02-15T13:00:32;38.88;;;17.20;;
53145;SDS011;39042;53.150;5.898;2024-02-15T13:02:59;38.90;;;17.70;;
53145;SDS011;39042;53.150;5.898;2024-02-15T13:05:28;37.15;;;17.30;;
53145;SDS011;39042;53.150;5.898;2024-02-15T13:07:54;32.47;;;16.55;;
53145;SDS011;39042;53.150;5.898;2024-02-15T13:10:21;40.90;;;16.80;;
53145;SDS011;39042;53.150;5.898;2024-02-15T13:15:14;40.53;;;16.48;;
53145;SDS011;39042;53.150;5.898;2024-02-15T13:17:49;38.40;;;17.08;;
53145;SDS011;39042;53.150;5.898;2024-02-15T13:20:25;35.50;;;17.20;;
53145;SDS011;39042;53.150;5.898;2024-02-15T13:22:58;35.97;;;16.58;;
53145;SDS011;39042;53.150;5.898;2024-02-15T13:25:36;33.38;;;16.83;;
53145;SDS011;39042;53.150;5.898;2024-02-15T13:28:07;32.60;;;16.08;;
53145;SDS011;39042;53.150;5.898;2024-02-15T13:30:35;35.65;;;16.23;;
53145;SDS011;39042;53.150;5.898;2024-02-15T13:33:02;33.78;;;16.23;;
53145;SDS011;39042;53.150;5.898;2024-02-15T13:35:28;36.50;;;20.13;;
53145;SDS011;39042;53.150;5.898;2024-02-15T13:37:54;41.55;;;21.80;;
53145;SDS011;39042;53.150;5.898;2024-02-15T13:40:26;42.00;;;24.25;;
53145;SDS011;39042;53.150;5.898;2024-02-15T13:42:55;44.67;;;24.55;;
53145;SDS011;39042;53.150;5.898;2024-02-15T13:45:45;45.80;;;24.83;;
53145;SDS011;39042;53.150;5.898;2024-02-15T13:48:10;35.83;;;21.88;;
53145;SDS011;39042;53.150;5.898;2024-02-15T13:50:40;33.10;;;18.48;;
53145;SDS011;39042;53.150;5.898;2024-02-15T13:53:06;34.90;;;18.48;;
53145;SDS011;39042;53.150;5.898;2024-02-15T13:55:34;34.92;;;19.40;;
53145;SDS011;39042;53.150;5.898;2024-02-15T13:58:01;35.63;;;20.30;;
53145;SDS011;39042;53.150;5.898;2024-02-15T14:00:28;36.35;;;17.98;;
53145;SDS011;39042;53.150;5.898;2024-02-15T14:03:00;31.48;;;17.27;;
53145;SDS011;39042;53.150;5.898;2024-02-15T14:05:27;29.63;;;17.02;;
53145;SDS011;39042;53.150;5.898;2024-02-15T14:07:59;32.75;;;16.25;;
53145;SDS011;39042;53.150;5.898;2024-02-15T14:10:28;35.00;;;16.33;;
53145;SDS011;39042;53.150;5.898;2024-02-15T14:12:55;26.25;;;14.38;;
53145;SDS011;39042;53.150;5.898;2024-02-15T14:15:23;28.95;;;14.70;;
53145;SDS011;39042;53.150;5.898;2024-02-15T14:20:15;26.45;;;14.95;;
53145;SDS011;39042;53.150;5.898;2024-02-15T14:22:45;28.92;;;15.10;;
53145;SDS011;39042;53.150;5.898;2024-02-15T14:25:15;25.30;;;14.20;;
53145;SDS011;39042;53.150;5.898;2024-02-15T14:27:41;26.73;;;14.00;;
53145;SDS011;39042;53.150;5.898;2024-02-15T14:30:12;26.38;;;13.18;;
53145;SDS011;39042;53.150;5.898;2024-02-15T14:32:57;22.42;;;12.90;;
53145;SDS011;39042;53.150;5.898;2024-02-15T14:35:32;24.27;;;12.90;;
53145;SDS011;39042;53.150;5.898;2024-02-15T14:38:03;21.05;;;12.98;;
53145;SDS011;39042;53.150;5.898;2024-02-15T14:40:36;29.00;;;13.65;;
53145;SDS011;39042;53.150;5.898;2024-02-15T14:43:04;22.98;;;12.63;;
53145;SDS011;39042;53.150;5.898;2024-02-15T14:45:34;20.55;;;12.52;;
53145;SDS011;39042;53.150;5.898;2024-02-15T14:48:01;20.77;;;11.77;;
53145;SDS011;39042;53.150;5.898;2024-02-15T14:50:30;23.77;;;11.85;;
53145;SDS011;39042;53.150;5.898;2024-02-15T14:52:57;20.25;;;12.63;;
53145;SDS011;39042;53.150;5.898;2024-02-15T14:55:23;20.55;;;11.65;;
53145;SDS011;39042;53.150;5.898;2024-02-15T14:57:49;21.55;;;11.00;;
53145;SDS011;39042;53.150;5.898;2024-02-15T15:00:15;17.73;;;11.80;;
53145;SDS011;39042;53.150;5.898;2024-02-15T15:02:47;21.73;;;11.95;;
53145;SDS011;39042;53.150;5.898;2024-02-15T15:05:15;21.00;;;11.65;;
53145;SDS011;39042;53.150;5.898;2024-02-15T15:08:01;19.00;;;10.77;;
53145;SDS011;39042;53.150;5.898;2024-02-15T15:10:49;21.92;;;11.45;;
53145;SDS011;39042;53.150;5.898;2024-02-15T15:13:33;17.73;;;10.77;;
53145;SDS011;39042;53.150;5.898;2024-02-15T15:15:59;22.75;;;11.20;;
53145;SDS011;39042;53.150;5.898;2024-02-15T15:18:28;14.95;;;9.43;;